Lowell Highlands, MA

10 Minute Time Series

21-May-2018 12:20 PM

TimeTempHumidityDewpointBarometerWindSpeedWindGustWind DirRain
21-May-2018 12:10 AM60.8°F84%55.9°F30.008 inHg2 mph4 mph314° (NW)0.00 in
21-May-2018 12:20 AM60.5°F84%55.6°F30.010 inHg1 mph4 mph319° (NW)0.00 in
21-May-2018 12:30 AM60.1°F85%55.6°F30.011 inHg1 mph3 mph319° (NW)0.00 in
21-May-2018 12:40 AM59.8°F85%55.3°F30.014 inHg1 mph4 mph307° (NW)0.00 in
21-May-2018 12:50 AM59.4°F86%55.2°F30.017 inHg2 mph4 mph317° (NW)0.00 in
21-May-2018 01:00 AM58.9°F87%55.0°F30.017 inHg1 mph3 mph319° (NW)0.00 in
21-May-2018 01:10 AM58.5°F87%54.6°F30.014 inHg1 mph3 mph325° (NW)0.00 in
21-May-2018 01:20 AM58.2°F87%54.3°F30.020 inHg1 mph3 mph331° (NNW)0.00 in
21-May-2018 01:30 AM57.8°F86%53.6°F30.025 inHg1 mph2 mph331° (NNW)0.00 in
21-May-2018 01:40 AM57.5°F86%53.3°F30.029 inHg2 mph4 mph324° (NW)0.00 in
21-May-2018 01:50 AM57.3°F86%53.1°F30.031 inHg0 mph4 mph321° (NW)0.00 in
21-May-2018 02:00 AM57.0°F86%52.9°F30.033 inHg0 mph1 mph N/A (N/A)0.00 in
21-May-2018 02:10 AM56.7°F86%52.6°F30.035 inHg0 mph0 mph N/A (N/A)0.00 in
21-May-2018 02:20 AM56.2°F87%52.4°F30.042 inHg0 mph0 mph N/A (N/A)0.00 in
21-May-2018 02:30 AM55.6°F88%52.1°F30.043 inHg0 mph0 mph N/A (N/A)0.00 in
21-May-2018 02:40 AM55.1°F88%51.6°F30.045 inHg0 mph2 mph321° (NW)0.00 in
21-May-2018 02:50 AM54.6°F88%51.1°F30.047 inHg0 mph2 mph321° (NW)0.00 in
21-May-2018 03:00 AM54.2°F88%50.7°F30.052 inHg0 mph1 mph321° (NW)0.00 in
21-May-2018 03:10 AM53.8°F89%50.6°F30.053 inHg0 mph1 mph321° (NW)0.00 in
21-May-2018 03:20 AM53.5°F89%50.3°F30.057 inHg0 mph1 mph321° (NW)0.00 in
21-May-2018 03:30 AM53.2°F89%50.0°F30.059 inHg0 mph1 mph321° (NW)0.00 in
21-May-2018 03:40 AM53.0°F89%49.8°F30.064 inHg0 mph1 mph321° (NW)0.00 in
21-May-2018 03:50 AM52.7°F89%49.5°F30.067 inHg1 mph3 mph326° (NNW)0.00 in
21-May-2018 04:00 AM52.8°F88%49.3°F30.069 inHg1 mph3 mph327° (NNW)0.00 in
21-May-2018 04:10 AM52.8°F88%49.3°F30.070 inHg1 mph3 mph313° (NW)0.00 in
21-May-2018 04:20 AM52.8°F87%49.0°F30.071 inHg0 mph2 mph307° (NW)0.00 in
21-May-2018 04:30 AM52.7°F87%48.9°F30.075 inHg0 mph1 mph308° (NW)0.00 in
21-May-2018 04:40 AM52.4°F87%48.6°F30.079 inHg0 mph2 mph308° (NW)0.00 in
21-May-2018 04:50 AM52.0°F87%48.3°F30.082 inHg0 mph2 mph307° (NW)0.00 in
21-May-2018 05:00 AM51.5°F88%48.1°F30.087 inHg0 mph1 mph306° (NW)0.00 in
21-May-2018 05:10 AM51.1°F88%47.7°F30.090 inHg0 mph1 mph298° (WNW)0.00 in
21-May-2018 05:20 AM50.8°F89%47.7°F30.091 inHg0 mph1 mph298° (WNW)0.00 in
21-May-2018 05:30 AM50.5°F89%47.4°F30.096 inHg0 mph1 mph N/A (N/A)0.00 in
21-May-2018 05:40 AM50.2°F89%47.1°F30.099 inHg0 mph0 mph N/A (N/A)0.00 in
21-May-2018 05:50 AM49.9°F89%46.8°F30.102 inHg0 mph1 mph298° (WNW)0.00 in
21-May-2018 06:00 AM49.8°F90%47.0°F30.103 inHg0 mph1 mph298° (WNW)0.00 in
21-May-2018 06:10 AM49.9°F90%47.1°F30.106 inHg0 mph2 mph330° (NNW)0.00 in
21-May-2018 06:20 AM50.1°F90%47.3°F30.108 inHg1 mph2 mph338° (NNW)0.00 in
21-May-2018 06:30 AM50.4°F90%47.6°F30.112 inHg1 mph2 mph316° (NW)0.00 in
21-May-2018 06:40 AM50.9°F89%47.8°F30.116 inHg1 mph3 mph335° (NNW)0.00 in
21-May-2018 06:50 AM51.4°F88%48.0°F30.119 inHg1 mph4 mph318° (NW)0.00 in
21-May-2018 07:00 AM52.1°F87%48.3°F30.125 inHg1 mph4 mph312° (NW)0.00 in
21-May-2018 07:10 AM53.0°F85%48.6°F30.128 inHg2 mph4 mph315° (NW)0.00 in
21-May-2018 07:20 AM54.0°F83%49.0°F30.132 inHg2 mph5 mph309° (NW)0.00 in
21-May-2018 07:30 AM55.0°F80%48.9°F30.138 inHg2 mph5 mph300° (WNW)0.00 in
21-May-2018 07:40 AM56.1°F76%48.6°F30.138 inHg2 mph5 mph334° (NNW)0.00 in
21-May-2018 07:50 AM57.1°F74%48.9°F30.141 inHg3 mph6 mph322° (NW)0.00 in
21-May-2018 08:00 AM58.0°F71%48.6°F30.142 inHg3 mph7 mph329° (NNW)0.00 in
21-May-2018 08:10 AM59.1°F70%49.3°F30.147 inHg3 mph7 mph334° (NNW)0.00 in
21-May-2018 08:20 AM60.2°F66%48.8°F30.145 inHg3 mph7 mph333° (NNW)0.00 in
21-May-2018 08:30 AM60.8°F64%48.5°F30.149 inHg3 mph7 mph324° (NW)0.00 in
21-May-2018 08:40 AM61.3°F61%47.7°F30.148 inHg4 mph9 mph338° (NNW)0.00 in
21-May-2018 08:50 AM62.0°F60%48.0°F30.148 inHg3 mph9 mph330° (NNW)0.00 in
21-May-2018 09:00 AM62.7°F59%48.2°F30.150 inHg3 mph8 mph328° (NNW)0.00 in
21-May-2018 09:10 AM64.0°F56%48.0°F30.152 inHg2 mph6 mph330° (NNW)0.00 in
21-May-2018 09:20 AM64.4°F56%48.4°F30.151 inHg3 mph7 mph353° (N)0.00 in
21-May-2018 09:30 AM64.9°F53%47.4°F30.153 inHg3 mph9 mph354° (N)0.00 in
21-May-2018 09:40 AM65.0°F51%46.4°F30.152 inHg3 mph9 mph6° (N)0.00 in
21-May-2018 09:50 AM66.2°F48%45.9°F30.151 inHg3 mph7 mph344° (NNW)0.00 in
21-May-2018 10:00 AM66.8°F47%45.9°F30.149 inHg2 mph7 mph348° (NNW)0.00 in
21-May-2018 10:10 AM67.6°F44%44.9°F30.148 inHg2 mph7 mph337° (NNW)0.00 in
21-May-2018 10:20 AM68.1°F46%46.5°F30.145 inHg2 mph9 mph340° (NNW)0.00 in
21-May-2018 10:30 AM69.0°F46%47.3°F30.145 inHg2 mph9 mph316° (NW)0.00 in
21-May-2018 10:40 AM69.6°F42%45.5°F30.146 inHg2 mph7 mph340° (NNW)0.00 in
21-May-2018 10:50 AM70.3°F41%45.5°F30.144 inHg2 mph7 mph347° (NNW)0.00 in
21-May-2018 11:00 AM70.5°F37%43.0°F30.144 inHg2 mph7 mph287° (WNW)0.00 in
21-May-2018 11:10 AM71.2°F36%42.9°F30.141 inHg2 mph7 mph253° (WSW)0.00 in
21-May-2018 11:20 AM71.3°F36%43.0°F30.142 inHg3 mph9 mph286° (WNW)0.00 in
21-May-2018 11:30 AM72.0°F33%41.3°F30.144 inHg2 mph9 mph249° (WSW)0.00 in
21-May-2018 11:40 AM72.7°F33%41.9°F30.144 inHg2 mph7 mph278° (W)0.00 in
21-May-2018 11:50 AM72.7°F32%41.1°F30.142 inHg3 mph7 mph317° (NW)0.00 in
21-May-2018 12:00 PM73.2°F29%39.0°F30.137 inHg3 mph7 mph275° (W)0.00 in
21-May-2018 12:10 PM74.5°F28%39.2°F30.133 inHg2 mph5 mph285° (WNW)0.00 in
21-May-2018 12:20 PM74.7°F26%37.5°F30.132 inHg3 mph6 mph307° (NW)0.00 in